createdAt,value
2022-11-05T00:01:59.676Z,4.18
2022-11-05T00:05:16.565Z,3.70
2022-11-05T00:08:33.505Z,3.47
2022-11-05T00:11:50.760Z,4.13
2022-11-05T00:15:09.958Z,4.28
2022-11-05T00:18:14.126Z,3.92
2022-11-05T00:21:30.737Z,3.22
2022-11-05T00:24:47.551Z,3.40
2022-11-05T00:27:53.444Z,3.97
2022-11-05T00:31:04.784Z,4.10
2022-11-05T00:34:08.934Z,4.07
2022-11-05T00:37:12.650Z,3.88
2022-11-05T00:40:16.878Z,3.83
2022-11-05T00:43:33.700Z,4.07
2022-11-05T00:46:39.582Z,4.00
2022-11-05T00:49:41.360Z,3.90
2022-11-05T00:52:58.713Z,3.70
2022-11-05T00:56:02.674Z,3.65
2022-11-05T01:02:12.057Z,4.70
2022-11-05T01:05:16.378Z,3.85
2022-11-05T01:08:23.074Z,4.05
2022-11-05T01:11:36.451Z,4.22
2022-11-05T01:14:40.113Z,3.93
2022-11-05T01:17:45.793Z,4.35
2022-11-05T01:20:50.765Z,4.32
2022-11-05T01:23:54.742Z,4.47
2022-11-05T01:30:01.961Z,3.60
2022-11-05T01:33:08.323Z,3.72
2022-11-05T01:36:12.792Z,4.03
2022-11-05T01:39:16.654Z,3.58
2022-11-05T01:45:26.625Z,3.53
2022-11-05T01:48:36.661Z,3.90
2022-11-05T01:51:41.501Z,3.40
2022-11-05T01:54:46.504Z,3.33
2022-11-05T01:57:51.549Z,3.53
2022-11-05T02:00:57.927Z,4.45
2022-11-05T02:04:06.261Z,3.97
2022-11-05T02:07:12.308Z,3.10
2022-11-05T02:10:17.479Z,4.95
2022-11-05T02:13:21.258Z,4.15
2022-11-05T02:16:36.866Z,4.03
2022-11-05T02:20:19.597Z,4.53
2022-11-05T02:23:56.589Z,5.10
2022-11-05T02:27:18.557Z,3.60
2022-11-05T02:30:42.368Z,4.63
2022-11-05T02:33:56.189Z,4.28
2022-11-05T02:37:07.798Z,4.40
2022-11-05T02:40:18.533Z,4.28
2022-11-05T02:43:32.560Z,4.13
2022-11-05T02:46:48.227Z,4.38
2022-11-05T02:49:59.222Z,4.28
2022-11-05T02:53:05.761Z,3.97
2022-11-05T02:56:13.763Z,3.88
2022-11-05T02:59:17.457Z,3.50
2022-11-05T03:02:23.592Z,3.85
2022-11-05T03:05:36.507Z,3.70
2022-11-05T03:08:57.125Z,3.65
2022-11-05T03:12:11.723Z,4.07
2022-11-05T03:15:28.386Z,4.32
2022-11-05T03:18:42.424Z,4.25
2022-11-05T03:21:50.379Z,4.40
2022-11-05T03:25:04.256Z,4.18
2022-11-05T03:28:12.205Z,4.35
2022-11-05T03:31:17.908Z,4.90
2022-11-05T03:34:29.569Z,3.60
2022-11-05T03:37:36.352Z,4.22
2022-11-05T03:40:43.150Z,3.83
2022-11-05T03:43:50.826Z,4.78
2022-11-05T03:46:58.136Z,4.28
2022-11-05T03:50:10.874Z,4.43
2022-11-05T03:53:18.221Z,4.25
2022-11-05T03:56:27.066Z,4.65
2022-11-05T03:59:32.842Z,5.97
2022-11-05T04:02:36.715Z,4.07
2022-11-05T04:05:42.602Z,3.70
2022-11-05T04:08:59.469Z,4.13
2022-11-05T04:12:16.292Z,3.78
2022-11-05T04:15:20.188Z,4.32
2022-11-05T04:21:40.876Z,3.97
2022-11-05T04:24:45.054Z,4.15
2022-11-05T04:27:49.308Z,3.88
2022-11-05T04:30:51.051Z,4.20
2022-11-05T04:33:54.811Z,3.80
2022-11-05T04:37:00.469Z,3.88
2022-11-05T04:40:04.193Z,4.22
2022-11-05T04:43:14.677Z,4.25
2022-11-05T04:46:18.790Z,3.70
2022-11-05T04:49:22.720Z,3.42
2022-11-05T04:55:32.050Z,3.00
2022-11-05T04:58:35.773Z,3.25
2022-11-05T05:01:40.092Z,3.40
2022-11-05T05:04:43.833Z,3.63
2022-11-05T05:07:49.490Z,3.28
2022-11-05T05:10:53.364Z,3.33
2022-11-05T05:17:00.819Z,3.23
2022-11-05T05:20:17.949Z,3.42
2022-11-05T05:23:23.806Z,2.40
2022-11-05T05:26:28.025Z,3.50
2022-11-05T05:29:31.803Z,3.42
2022-11-05T05:32:35.734Z,2.90
2022-11-05T05:35:39.425Z,2.70
2022-11-05T05:38:45.040Z,3.25
2022-11-05T05:41:48.760Z,3.22
2022-11-05T05:44:52.463Z,3.08
2022-11-05T05:47:57.075Z,3.25
2022-11-05T05:51:04.198Z,3.13
2022-11-05T05:54:10.067Z,2.95
2022-11-05T05:57:13.725Z,3.10
2022-11-05T06:00:18.062Z,2.65
2022-11-05T06:03:22.100Z,3.15
2022-11-05T06:06:25.852Z,3.45
2022-11-05T06:09:31.748Z,3.45
2022-11-05T06:12:36.041Z,3.05
2022-11-05T06:15:39.948Z,3.33
2022-11-05T06:21:47.295Z,3.30
2022-11-05T06:24:53.177Z,3.28
2022-11-05T06:27:57.078Z,3.15
2022-11-05T06:34:05.012Z,3.58
2022-11-05T06:37:08.744Z,3.95
2022-11-05T06:40:14.954Z,4.70
2022-11-05T06:43:18.850Z,5.60
2022-11-05T06:49:26.206Z,5.30
2022-11-05T06:55:36.583Z,5.15
2022-11-05T06:58:40.667Z,4.75
2022-11-05T07:01:44.724Z,5.80
2022-11-05T07:04:48.570Z,5.85
2022-11-05T07:07:52.357Z,5.93
2022-11-05T07:10:58.490Z,5.00
2022-11-05T07:14:02.564Z,6.03
2022-11-05T07:17:06.484Z,5.95
2022-11-05T07:23:16.098Z,6.05
2022-11-05T07:26:21.749Z,5.85
2022-11-05T07:29:25.535Z,6.30
2022-11-05T07:32:29.247Z,7.03
2022-11-05T07:35:33.372Z,7.03
2022-11-05T07:38:37.093Z,6.40
2022-11-05T07:41:42.801Z,6.38
2022-11-05T07:44:46.741Z,7.28
2022-11-05T07:50:56.812Z,7.07
2022-11-05T07:54:00.532Z,6.45
2022-11-05T07:57:06.226Z,6.47
2022-11-05T08:00:11.864Z,6.15
2022-11-05T08:03:18.737Z,7.30
2022-11-05T08:06:23.216Z,7.05
2022-11-05T08:12:33.420Z,6.47
2022-11-05T08:15:37.758Z,6.78
2022-11-05T08:18:41.912Z,7.00
2022-11-05T08:21:45.642Z,7.68
2022-11-05T08:24:49.507Z,6.95
2022-11-05T08:27:59.726Z,6.88
2022-11-05T08:31:03.714Z,7.47
2022-11-05T08:37:11.087Z,6.53
2022-11-05T08:40:14.829Z,7.20
2022-11-05T08:43:20.944Z,6.85
2022-11-05T08:46:24.971Z,6.55
2022-11-05T08:49:28.906Z,6.93
2022-11-05T08:55:36.339Z,6.80
2022-11-05T09:01:45.791Z,6.45
2022-11-05T09:04:49.547Z,6.95
2022-11-05T09:07:57.882Z,7.68
2022-11-05T09:11:04.414Z,6.80
2022-11-05T09:14:10.110Z,6.45
2022-11-05T09:17:19.550Z,6.07
2022-11-05T09:20:24.134Z,6.63
2022-11-05T09:23:27.931Z,6.47
2022-11-05T09:26:31.750Z,7.30
2022-11-05T09:29:37.433Z,7.20
2022-11-05T09:32:41.455Z,6.50
2022-11-05T09:35:45.193Z,6.55
2022-11-05T09:38:48.907Z,7.20
2022-11-05T09:41:54.609Z,7.25
2022-11-05T09:45:03.175Z,6.97
2022-11-05T09:48:12.094Z,6.68
2022-11-05T09:51:23.506Z,7.72
2022-11-05T09:54:31.292Z,6.78
2022-11-05T09:57:43.429Z,6.72
2022-11-05T10:00:52.223Z,8.15
2022-11-05T10:03:58.342Z,8.52
2022-11-05T10:07:05.751Z,8.23
2022-11-05T10:10:20.024Z,6.93
2022-11-05T10:16:36.796Z,6.35
2022-11-05T10:19:45.735Z,6.47
2022-11-05T10:22:51.436Z,6.45
2022-11-05T10:25:57.787Z,5.53
2022-11-05T10:29:02.054Z,5.95
2022-11-05T10:32:09.306Z,6.13
2022-11-05T10:35:17.821Z,5.60
2022-11-05T10:38:22.190Z,6.68
2022-11-05T10:41:37.410Z,5.30
2022-11-05T10:44:47.938Z,5.57
2022-11-05T10:48:10.766Z,4.88
2022-11-05T10:51:15.314Z,5.07
2022-11-05T10:54:27.703Z,5.00
2022-11-05T10:57:35.434Z,5.20
2022-11-05T11:00:39.645Z,4.53
2022-11-05T11:03:48.607Z,5.50
2022-11-05T11:06:55.306Z,4.47
2022-11-05T11:09:59.046Z,4.97
2022-11-05T11:13:03.540Z,5.72
2022-11-05T11:16:17.060Z,4.55
2022-11-05T11:19:30.365Z,5.05
2022-11-05T11:22:34.506Z,5.13
2022-11-05T11:25:46.805Z,5.82
2022-11-05T11:28:59.798Z,4.63
2022-11-05T11:32:04.078Z,4.53
2022-11-05T11:35:22.001Z,4.80
2022-11-05T11:38:26.991Z,4.28
2022-11-05T11:41:34.630Z,4.70
2022-11-05T11:44:44.221Z,4.85
2022-11-05T11:47:49.906Z,4.88
2022-11-05T11:50:56.634Z,4.50
2022-11-05T11:54:01.892Z,4.57
2022-11-05T11:57:22.703Z,5.57
2022-11-05T12:00:28.566Z,4.88
2022-11-05T12:03:41.595Z,4.50
2022-11-05T12:06:54.132Z,4.68
2022-11-05T12:10:12.252Z,4.07
2022-11-05T12:13:45.882Z,3.72
2022-11-05T12:17:09.744Z,4.03
2022-11-05T12:20:26.175Z,5.30
2022-11-05T12:23:49.792Z,4.75
2022-11-05T12:27:05.523Z,4.20
2022-11-05T12:30:15.666Z,4.15
2022-11-05T12:33:31.285Z,3.95
2022-11-05T12:36:47.407Z,3.60
2022-11-05T12:40:19.614Z,3.30
2022-11-05T12:43:32.584Z,3.67
2022-11-05T12:46:42.454Z,4.40
2022-11-05T12:50:05.790Z,4.07
2022-11-05T12:53:32.933Z,4.10
2022-11-05T12:56:42.254Z,4.22
2022-11-05T12:59:53.771Z,4.25
2022-11-05T13:03:06.958Z,4.60
2022-11-05T13:06:14.321Z,4.40
2022-11-05T13:09:22.413Z,4.65
2022-11-05T13:12:31.956Z,4.13
2022-11-05T13:15:40.389Z,4.80
2022-11-05T13:18:47.491Z,4.60
2022-11-05T13:21:54.996Z,4.25
2022-11-05T13:25:03.983Z,4.53
2022-11-05T13:28:21.022Z,5.22
2022-11-05T13:31:32.985Z,4.57
2022-11-05T13:34:37.846Z,4.82
2022-11-05T13:37:59.698Z,4.47
2022-11-05T13:41:21.901Z,3.90
2022-11-05T13:44:59.410Z,4.35
2022-11-05T13:48:27.610Z,5.40
2022-11-05T13:51:48.838Z,4.90
2022-11-05T13:55:19.397Z,4.43
2022-11-05T13:58:59.007Z,3.97
2022-11-05T14:02:13.355Z,4.18
2022-11-05T14:05:27.952Z,4.18
2022-11-05T14:08:35.561Z,4.25
2022-11-05T14:11:42.724Z,3.92
2022-11-05T14:14:58.478Z,3.63
2022-11-05T14:18:07.485Z,3.42
2022-11-05T14:21:33.678Z,3.40
2022-11-05T14:24:43.638Z,3.60
2022-11-05T14:27:48.815Z,4.30
2022-11-05T14:30:53.087Z,4.35
2022-11-05T14:34:05.844Z,5.43
2022-11-05T14:37:44.985Z,4.20
2022-11-05T14:40:59.743Z,4.95
2022-11-05T14:44:09.221Z,4.68
2022-11-05T14:47:23.817Z,5.35
2022-11-05T14:50:37.779Z,4.40
2022-11-05T14:53:42.197Z,4.78
2022-11-05T14:56:53.234Z,4.72
2022-11-05T15:00:00.273Z,4.25
2022-11-05T15:03:06.381Z,4.55
2022-11-05T15:06:27.942Z,4.25
2022-11-05T15:09:35.291Z,4.50
2022-11-05T15:12:43.907Z,4.85
2022-11-05T15:15:50.312Z,4.80
2022-11-05T15:18:57.163Z,5.20
2022-11-05T15:22:07.094Z,5.65
2022-11-05T15:25:20.123Z,5.15
2022-11-05T15:28:31.866Z,6.45
2022-11-05T15:31:40.623Z,7.75
2022-11-05T15:34:53.095Z,6.57
2022-11-05T15:38:02.494Z,5.40
2022-11-05T15:41:16.228Z,4.97
2022-11-05T15:44:27.756Z,5.40
2022-11-05T15:47:33.651Z,5.30
2022-11-05T15:50:37.559Z,5.30
2022-11-05T15:54:29.576Z,6.00
2022-11-05T15:57:27.768Z,7.43
2022-11-05T16:00:34.048Z,5.70
2022-11-05T16:03:40.848Z,5.07
2022-11-05T16:06:47.482Z,5.15
2022-11-05T16:09:57.493Z,5.93
2022-11-05T16:13:25.373Z,5.70
2022-11-05T16:16:36.034Z,5.65
2022-11-05T16:19:43.370Z,5.32
2022-11-05T16:22:48.431Z,5.68
2022-11-05T16:25:54.574Z,5.72
2022-11-05T16:28:59.287Z,5.50
2022-11-05T16:32:06.004Z,6.35
2022-11-05T16:35:20.961Z,7.38
2022-11-05T16:38:25.547Z,6.13
2022-11-05T16:41:31.963Z,5.43
2022-11-05T16:44:35.848Z,6.30
2022-11-05T16:50:44.673Z,4.85
2022-11-05T16:53:49.588Z,4.88
2022-11-05T16:56:57.281Z,5.32
2022-11-05T17:00:02.166Z,5.07
2022-11-05T17:03:06.429Z,4.93
2022-11-05T17:06:10.160Z,4.95
2022-11-05T17:09:14.086Z,6.32
2022-11-05T17:12:20.016Z,5.07
2022-11-05T17:15:25.926Z,5.65
2022-11-05T17:18:29.833Z,4.70
2022-11-05T17:24:38.363Z,5.43
2022-11-05T17:27:44.036Z,6.18
2022-11-05T17:30:53.044Z,6.00
2022-11-05T17:33:57.731Z,4.97
2022-11-05T17:37:01.890Z,5.18
2022-11-05T17:40:07.784Z,4.93
2022-11-05T17:43:14.987Z,5.07
2022-11-05T17:46:19.338Z,5.40
2022-11-05T17:49:23.056Z,5.45
2022-11-05T17:52:26.830Z,4.63
2022-11-05T17:55:30.697Z,5.38
2022-11-05T17:58:37.434Z,6.03
2022-11-05T18:01:42.952Z,5.95
2022-11-05T18:04:47.192Z,4.95
2022-11-05T18:07:51.058Z,6.10
2022-11-05T18:10:55.039Z,5.32
2022-11-05T18:17:04.555Z,5.20
2022-11-05T18:23:22.549Z,4.18
2022-11-05T18:26:26.580Z,5.15
2022-11-05T18:32:36.532Z,4.80
2022-11-05T18:35:44.353Z,6.07
2022-11-05T18:38:48.802Z,5.40
2022-11-05T18:41:52.704Z,4.75
2022-11-05T18:44:58.586Z,5.10
2022-11-05T18:48:03.133Z,5.40
2022-11-05T18:51:12.521Z,5.05
2022-11-05T18:54:16.448Z,4.80
2022-11-05T19:00:27.293Z,5.18
2022-11-05T19:03:31.365Z,4.45
2022-11-05T19:06:35.718Z,5.35
2022-11-05T19:09:40.879Z,4.25
2022-11-05T19:12:44.973Z,4.68
2022-11-05T19:15:50.998Z,5.30
2022-11-05T19:18:55.378Z,5.05
2022-11-05T19:21:59.214Z,4.78
2022-11-05T19:25:03.207Z,4.28
2022-11-05T19:28:07.268Z,4.93
2022-11-05T19:31:15.570Z,4.35
2022-11-05T19:34:19.997Z,4.10
2022-11-05T19:37:24.213Z,4.55
2022-11-05T19:40:28.131Z,4.15
2022-11-05T19:46:40.460Z,4.68
2022-11-05T19:49:44.230Z,3.40
2022-11-05T19:52:47.932Z,4.03
2022-11-05T19:55:51.924Z,4.00
2022-11-05T20:02:01.840Z,4.55
2022-11-05T20:05:06.327Z,3.75
2022-11-05T20:08:10.693Z,3.70
2022-11-05T20:11:15.178Z,4.28
2022-11-05T20:14:19.120Z,3.60
2022-11-05T20:20:28.555Z,3.20
2022-11-05T20:23:32.958Z,3.08
2022-11-05T20:26:37.669Z,4.30
2022-11-05T20:29:41.438Z,3.15
2022-11-05T20:32:47.201Z,3.63
2022-11-05T20:35:51.181Z,3.60
2022-11-05T20:42:01.822Z,3.63
2022-11-05T20:45:06.127Z,3.60
2022-11-05T20:48:12.353Z,3.33
2022-11-05T20:51:18.290Z,3.13
2022-11-05T20:54:22.267Z,3.70
2022-11-05T21:00:29.655Z,3.45
2022-11-05T21:06:39.341Z,3.58
2022-11-05T21:09:43.070Z,4.70
2022-11-05T21:12:47.032Z,4.07
2022-11-05T21:18:57.635Z,3.72
2022-11-05T21:22:01.841Z,4.18
2022-11-05T21:25:06.535Z,3.88
2022-11-05T21:28:12.460Z,4.13
2022-11-05T21:31:16.485Z,4.25
2022-11-05T21:34:22.728Z,3.80
2022-11-05T21:37:26.503Z,3.40
2022-11-05T21:43:34.281Z,3.70
2022-11-05T21:46:38.265Z,3.75
2022-11-05T21:53:01.092Z,3.95
2022-11-05T21:56:21.197Z,4.22
2022-11-05T21:59:39.183Z,4.45
2022-11-05T22:02:43.375Z,4.40
2022-11-05T22:05:49.494Z,4.60
2022-11-05T22:08:53.320Z,4.78
2022-11-05T22:11:57.226Z,4.88
2022-11-05T22:15:01.173Z,5.55
2022-11-05T22:21:16.627Z,5.18
2022-11-05T22:24:21.291Z,5.35
2022-11-05T22:27:24.995Z,4.28
2022-11-05T22:30:28.656Z,4.85
2022-11-05T22:33:33.244Z,5.18
2022-11-05T22:36:39.342Z,4.68
2022-11-05T22:39:43.283Z,4.43
2022-11-05T22:45:50.936Z,5.03
2022-11-05T22:48:55.867Z,4.93
2022-11-05T22:52:01.715Z,5.10
2022-11-05T22:55:06.236Z,4.63
2022-11-05T22:58:10.230Z,4.88
2022-11-05T23:01:15.265Z,4.82
2022-11-05T23:04:19.669Z,5.70
2022-11-05T23:07:38.443Z,4.55
2022-11-05T23:10:55.369Z,5.50
2022-11-05T23:13:59.563Z,4.60
2022-11-05T23:17:16.410Z,4.82
2022-11-05T23:20:50.314Z,5.22
2022-11-05T23:24:08.346Z,4.67
2022-11-05T23:27:12.961Z,4.65
2022-11-05T23:30:19.325Z,4.85
2022-11-05T23:33:21.239Z,5.35
2022-11-05T23:36:38.193Z,4.72
2022-11-05T23:39:44.133Z,4.57
2022-11-05T23:43:07.882Z,4.88
2022-11-05T23:46:24.730Z,4.50
2022-11-05T23:49:28.972Z,6.25
2022-11-05T23:52:32.736Z,5.05
2022-11-05T23:55:38.904Z,4.65
2022-11-05T23:58:43.840Z,4.55
